createdAt,value
2018-05-15T00:00:45.621Z,0.00
2018-05-15T00:01:51.997Z,0.00
2018-05-15T00:02:58.390Z,0.00
2018-05-15T00:04:04.775Z,0.00
2018-05-15T00:05:10.657Z,0.00
2018-05-15T00:06:17.026Z,0.00
2018-05-15T00:07:23.407Z,0.00
2018-05-15T00:08:30.411Z,0.00
2018-05-15T00:09:36.660Z,0.00
2018-05-15T00:10:43.041Z,0.00
2018-05-15T00:11:49.434Z,0.00
2018-05-15T00:12:55.332Z,0.00
2018-05-15T00:14:02.188Z,0.00
2018-05-15T00:15:08.558Z,0.00
2018-05-15T00:16:14.932Z,0.00
2018-05-15T00:17:21.311Z,0.00
2018-05-15T00:18:27.707Z,0.00
2018-05-15T00:19:34.066Z,0.00
2018-05-15T00:20:40.461Z,0.00
2018-05-15T00:21:46.821Z,0.00
2018-05-15T00:22:53.225Z,0.00
2018-05-15T00:23:59.559Z,0.00
2018-05-15T00:25:05.950Z,0.00
2018-05-15T00:26:12.387Z,0.00
2018-05-15T00:27:18.705Z,0.00
2018-05-15T00:28:25.083Z,0.00
2018-05-15T00:29:31.440Z,0.00
2018-05-15T00:30:37.321Z,0.00
2018-05-15T00:31:43.687Z,0.00
2018-05-15T00:32:50.592Z,0.00
2018-05-15T00:33:56.934Z,0.00
2018-05-15T00:35:03.318Z,0.00
2018-05-15T00:36:09.695Z,0.00
2018-05-15T00:37:16.069Z,0.00
2018-05-15T00:38:21.960Z,0.00
2018-05-15T00:39:28.814Z,0.00
2018-05-15T00:40:35.183Z,0.00
2018-05-15T00:41:41.557Z,0.00
2018-05-15T00:42:47.951Z,0.00
2018-05-15T00:43:55.307Z,0.00
2018-05-15T00:45:00.697Z,0.00
2018-05-15T00:46:07.064Z,0.00
2018-05-15T00:47:13.450Z,0.00
2018-05-15T00:48:19.853Z,0.00
2018-05-15T00:49:25.713Z,0.00
2018-05-15T00:50:32.076Z,0.00
2018-05-15T00:51:38.949Z,0.00
2018-05-15T00:52:45.347Z,0.00
2018-05-15T00:53:51.722Z,0.00
2018-05-15T00:54:58.086Z,0.00
2018-05-15T00:56:04.457Z,0.00
2018-05-15T00:57:10.828Z,0.00
2018-05-15T00:58:17.228Z,0.00
2018-05-15T00:59:23.576Z,0.00
2018-05-15T01:00:29.986Z,0.00
2018-05-15T01:01:36.383Z,0.00
2018-05-15T01:02:42.740Z,0.00
2018-05-15T01:03:48.577Z,0.00
2018-05-15T01:04:55.448Z,0.00
2018-05-15T01:06:01.811Z,0.00
2018-05-15T01:07:08.201Z,0.00
2018-05-15T01:08:14.618Z,0.00
2018-05-15T01:09:20.945Z,0.00
2018-05-15T01:10:27.295Z,0.00
2018-05-15T01:11:33.176Z,0.00
2018-05-15T01:12:40.058Z,0.00
2018-05-15T01:13:46.424Z,0.00
2018-05-15T01:14:53.726Z,0.00
2018-05-15T01:16:00.142Z,0.00
2018-05-15T01:17:05.528Z,0.00
2018-05-15T01:18:11.919Z,0.00
2018-05-15T01:19:18.252Z,0.00
2018-05-15T01:20:24.612Z,0.00
2018-05-15T01:21:30.990Z,0.00
2018-05-15T01:22:36.870Z,0.00
2018-05-15T01:23:43.756Z,0.00
2018-05-15T01:24:50.095Z,0.00
2018-05-15T01:25:56.458Z,0.00
2018-05-15T01:27:02.821Z,0.00
2018-05-15T01:28:09.212Z,0.00
2018-05-15T01:29:15.559Z,0.00
2018-05-15T01:30:21.906Z,0.00
2018-05-15T01:31:28.270Z,0.00
2018-05-15T01:32:34.654Z,0.00
2018-05-15T01:33:41.028Z,0.00
2018-05-15T01:34:47.375Z,0.00
2018-05-15T01:35:53.731Z,0.00
2018-05-15T01:37:00.088Z,0.00
2018-05-15T01:38:06.483Z,0.00
2018-05-15T01:39:12.821Z,0.00
2018-05-15T01:40:19.177Z,0.00
2018-05-15T01:41:25.540Z,0.00
2018-05-15T01:42:31.897Z,0.00
2018-05-15T01:43:38.283Z,0.00
2018-05-15T01:44:45.603Z,0.00
2018-05-15T01:45:50.467Z,0.00
2018-05-15T01:46:57.320Z,0.00
2018-05-15T01:48:03.716Z,0.00
2018-05-15T01:49:10.047Z,0.00
2018-05-15T01:50:16.427Z,0.00
2018-05-15T01:51:22.764Z,0.00
2018-05-15T01:52:29.114Z,0.00
2018-05-15T01:53:35.513Z,0.00
2018-05-15T01:54:41.825Z,0.00
2018-05-15T01:55:48.184Z,0.00
2018-05-15T01:56:54.545Z,0.00
2018-05-15T01:58:00.909Z,0.00
2018-05-15T01:59:07.245Z,0.00
2018-05-15T02:00:13.600Z,0.00
2018-05-15T02:01:19.970Z,0.00
2018-05-15T02:02:26.622Z,0.00
2018-05-15T02:03:32.698Z,0.00
2018-05-15T02:04:39.027Z,0.00
2018-05-15T02:05:45.394Z,0.00
2018-05-15T02:06:51.831Z,0.00
2018-05-15T02:07:58.123Z,0.00
2018-05-15T02:09:04.468Z,0.00
2018-05-15T02:10:10.807Z,0.00
2018-05-15T02:11:17.192Z,0.00
2018-05-15T02:12:23.534Z,0.00
2018-05-15T02:13:29.425Z,0.00
2018-05-15T02:14:36.248Z,0.00
2018-05-15T02:15:42.600Z,0.00
2018-05-15T02:16:48.958Z,0.00
2018-05-15T02:17:55.352Z,0.00
2018-05-15T02:19:01.675Z,0.00
2018-05-15T02:20:08.035Z,0.00
2018-05-15T02:21:14.396Z,0.00
2018-05-15T02:22:20.743Z,0.00
2018-05-15T02:23:27.128Z,0.00
2018-05-15T02:24:33.460Z,0.00
2018-05-15T02:25:39.813Z,0.00
2018-05-15T02:26:45.682Z,0.00
2018-05-15T02:27:52.031Z,0.00
2018-05-15T02:28:58.898Z,0.00
2018-05-15T02:30:05.238Z,0.00
2018-05-15T02:31:11.591Z,0.00
2018-05-15T02:32:17.952Z,0.00
2018-05-15T02:33:23.822Z,0.00
2018-05-15T02:34:30.664Z,0.00
2018-05-15T02:35:37.025Z,0.00
2018-05-15T02:36:43.363Z,0.00
2018-05-15T02:37:49.718Z,0.00
2018-05-15T02:38:56.085Z,0.00
2018-05-15T02:40:02.408Z,0.00
2018-05-15T02:41:09.757Z,0.00
2018-05-15T02:42:16.112Z,0.00
2018-05-15T02:43:21.505Z,0.00
2018-05-15T02:44:27.332Z,0.00
2018-05-15T02:45:33.684Z,0.00
2018-05-15T02:46:40.536Z,0.00
2018-05-15T02:47:46.872Z,0.00
2018-05-15T02:48:53.245Z,0.00
2018-05-15T02:49:59.571Z,0.00
2018-05-15T02:51:05.935Z,0.00
2018-05-15T02:52:12.380Z,0.00
2018-05-15T02:53:18.649Z,0.00
2018-05-15T02:54:24.978Z,0.00
2018-05-15T02:55:30.840Z,0.00
2018-05-15T02:56:37.677Z,0.00
2018-05-15T02:57:43.543Z,0.00
2018-05-15T02:58:50.413Z,0.00
2018-05-15T02:59:56.728Z,0.00
2018-05-15T03:01:03.074Z,0.00
2018-05-15T03:02:09.424Z,4.00
2018-05-15T03:03:15.795Z,4.00
2018-05-15T03:04:22.129Z,4.00
2018-05-15T03:05:28.464Z,4.00
2018-05-15T03:06:34.851Z,4.00
2018-05-15T03:07:41.160Z,8.00
2018-05-15T03:08:47.518Z,4.00
2018-05-15T03:09:53.854Z,8.00
2018-05-15T03:11:00.216Z,8.00
2018-05-15T03:12:06.534Z,12.00
2018-05-15T03:13:12.904Z,12.00
2018-05-15T03:14:19.221Z,12.00
2018-05-15T03:15:25.560Z,20.00
2018-05-15T03:16:31.890Z,20.00
2018-05-15T03:17:38.233Z,24.00
2018-05-15T03:18:44.601Z,28.00
2018-05-15T03:19:51.913Z,32.00
2018-05-15T03:20:57.270Z,36.00
2018-05-15T03:22:03.586Z,36.00
2018-05-15T03:23:09.971Z,48.00
2018-05-15T03:24:16.267Z,52.00
2018-05-15T03:25:22.624Z,56.00
2018-05-15T03:26:28.952Z,68.00
2018-05-15T03:27:35.339Z,72.00
2018-05-15T03:28:41.163Z,84.00
2018-05-15T03:29:47.463Z,92.00
2018-05-15T03:30:54.384Z,104.00
2018-05-15T03:32:00.140Z,116.00
2018-05-15T03:33:06.978Z,132.00
2018-05-15T03:34:12.842Z,148.00
2018-05-15T03:35:19.646Z,164.00
2018-05-15T03:36:25.984Z,184.00
2018-05-15T03:37:32.382Z,200.00
2018-05-15T03:38:38.682Z,224.00
2018-05-15T03:39:44.975Z,248.00
2018-05-15T03:40:51.324Z,268.00
2018-05-15T03:41:57.658Z,288.00
2018-05-15T03:43:03.982Z,312.00
2018-05-15T03:44:10.407Z,340.00
2018-05-15T03:45:16.660Z,368.00
2018-05-15T03:46:22.987Z,392.00
2018-05-15T03:47:29.333Z,416.00
2018-05-15T03:48:35.686Z,440.00
2018-05-15T03:49:41.514Z,472.00
2018-05-15T03:50:48.383Z,504.00
2018-05-15T03:51:54.174Z,540.00
2018-05-15T03:53:01.012Z,572.00
2018-05-15T03:54:07.375Z,600.00
2018-05-15T03:55:13.697Z,628.00
2018-05-15T03:56:20.016Z,660.00
2018-05-15T03:57:26.383Z,696.00
2018-05-15T03:58:32.715Z,736.00
2018-05-15T03:59:39.035Z,772.00
2018-05-15T04:00:44.860Z,804.00
2018-05-15T04:01:51.697Z,840.00
2018-05-15T04:02:58.020Z,880.00
2018-05-15T04:04:04.405Z,924.00
2018-05-15T04:05:10.701Z,956.00
2018-05-15T04:06:17.038Z,996.00
2018-05-15T04:07:23.366Z,1032.00
2018-05-15T04:08:29.729Z,1080.00
2018-05-15T04:09:36.046Z,1136.00
2018-05-15T04:10:42.380Z,1188.00
2018-05-15T04:11:48.693Z,1240.00
2018-05-15T04:12:55.032Z,1296.00
2018-05-15T04:14:01.382Z,1368.00
2018-05-15T04:15:07.689Z,1440.00
2018-05-15T04:16:13.533Z,1512.00
2018-05-15T04:17:19.870Z,1560.00
2018-05-15T04:18:26.705Z,1584.00
2018-05-15T04:19:33.064Z,1632.00
2018-05-15T04:20:40.400Z,1720.00
2018-05-15T04:21:45.714Z,1816.00
2018-05-15T04:22:52.037Z,1884.00
2018-05-15T04:23:58.401Z,1976.00
2018-05-15T04:25:04.237Z,2044.00
2018-05-15T04:26:10.594Z,2140.00
2018-05-15T04:27:16.910Z,2240.00
2018-05-15T04:28:23.763Z,2272.00
2018-05-15T04:29:30.134Z,2232.00
2018-05-15T04:30:36.439Z,2172.00
2018-05-15T04:31:42.786Z,2156.00
2018-05-15T04:32:49.139Z,2204.00
2018-05-15T04:33:55.499Z,2268.00
2018-05-15T04:35:02.852Z,2396.00
2018-05-15T04:36:08.177Z,2404.00
2018-05-15T04:37:14.532Z,2320.00
2018-05-15T04:38:20.890Z,2196.00
2018-05-15T04:39:27.243Z,2136.00
2018-05-15T04:40:33.581Z,2136.00
2018-05-15T04:41:39.924Z,2208.00
2018-05-15T04:42:46.254Z,2316.00
2018-05-15T04:43:52.318Z,2336.00
2018-05-15T04:44:58.951Z,2512.00
2018-05-15T04:46:05.315Z,2652.00
2018-05-15T04:47:11.636Z,2744.00
2018-05-15T04:48:17.993Z,2812.00
2018-05-15T04:49:24.491Z,2996.00
2018-05-15T04:50:30.706Z,2944.00
2018-05-15T04:51:36.543Z,2996.00
2018-05-15T04:52:43.387Z,3100.00
2018-05-15T04:53:49.760Z,3204.00
2018-05-15T04:54:56.067Z,3300.00
2018-05-15T04:56:02.415Z,3308.00
2018-05-15T04:57:08.276Z,3228.00
2018-05-15T04:58:15.112Z,3208.00
2018-05-15T04:59:21.494Z,3160.00
2018-05-15T05:00:27.807Z,3004.00
2018-05-15T05:01:33.669Z,2820.00
2018-05-15T05:02:40.511Z,2688.00
2018-05-15T05:03:46.878Z,2580.00
2018-05-15T05:04:54.194Z,2508.00
2018-05-15T05:05:59.547Z,2480.00
2018-05-15T05:07:05.904Z,2652.00
2018-05-15T05:08:12.258Z,2956.00
2018-05-15T05:09:18.612Z,3464.00
2018-05-15T05:10:24.934Z,3980.00
2018-05-15T05:11:30.788Z,4444.00
2018-05-15T05:12:37.640Z,5024.00
2018-05-15T05:13:43.503Z,5528.00
2018-05-15T05:14:50.400Z,5788.00
2018-05-15T05:15:56.727Z,5732.00
2018-05-15T05:17:03.105Z,5396.00
2018-05-15T05:18:09.470Z,4880.00
2018-05-15T05:19:15.864Z,4468.00
2018-05-15T05:20:22.210Z,4200.00
2018-05-15T05:21:28.573Z,3876.00
2018-05-15T05:22:34.950Z,3552.00
2018-05-15T05:23:41.385Z,3304.00
2018-05-15T05:24:47.723Z,3152.00
2018-05-15T05:25:54.065Z,3088.00
2018-05-15T05:27:00.439Z,3128.00
2018-05-15T05:28:06.387Z,3272.00
2018-05-15T05:29:13.170Z,3460.00
2018-05-15T05:30:19.553Z,3748.00
2018-05-15T05:31:25.882Z,4196.00
2018-05-15T05:32:31.766Z,4980.00
2018-05-15T05:33:38.622Z,6004.00
2018-05-15T05:34:45.034Z,7252.00
2018-05-15T05:35:51.370Z,7928.00
2018-05-15T05:36:57.755Z,7680.00
2018-05-15T05:38:04.135Z,7124.00
2018-05-15T05:39:10.553Z,7232.00
2018-05-15T05:40:16.920Z,7836.00
2018-05-15T05:41:23.291Z,8272.00
2018-05-15T05:42:29.700Z,8904.00
2018-05-15T05:43:36.094Z,9648.00
2018-05-15T05:44:42.511Z,9872.00
2018-05-15T05:45:48.935Z,9852.00
2018-05-15T05:46:55.313Z,9980.00
2018-05-15T05:48:01.718Z,10392.00
2018-05-15T05:49:08.167Z,11068.00
2018-05-15T05:50:14.554Z,11628.00
2018-05-15T05:51:20.989Z,12036.00
2018-05-15T05:52:26.908Z,11712.00
2018-05-15T05:53:33.836Z,11088.00
2018-05-15T05:54:40.284Z,10716.00
2018-05-15T05:55:46.700Z,10592.00
2018-05-15T05:56:53.127Z,10144.00
2018-05-15T05:57:59.592Z,9520.00
2018-05-15T05:59:06.012Z,9128.00
2018-05-15T06:00:13.414Z,9012.00
2018-05-15T06:01:18.368Z,9136.00
2018-05-15T06:02:25.301Z,9040.00
2018-05-15T06:03:31.730Z,8820.00
2018-05-15T06:04:38.181Z,8616.00
2018-05-15T06:05:44.573Z,8456.00
2018-05-15T06:06:51.008Z,8368.00
2018-05-15T06:07:57.436Z,8336.00
2018-05-15T06:09:03.384Z,8028.00
2018-05-15T06:10:10.379Z,7468.00
2018-05-15T06:11:16.720Z,6672.00
2018-05-15T06:12:23.123Z,5988.00
2018-05-15T06:13:29.551Z,5616.00
2018-05-15T06:14:35.991Z,5632.00
2018-05-15T06:15:41.879Z,6020.00
2018-05-15T06:16:48.790Z,6508.00
2018-05-15T06:17:55.198Z,6956.00
2018-05-15T06:19:01.640Z,7236.00
2018-05-15T06:20:08.019Z,7584.00
2018-05-15T06:21:14.446Z,8060.00
2018-05-15T06:22:20.846Z,8488.00
2018-05-15T06:23:27.267Z,8988.00
2018-05-15T06:24:33.717Z,9396.00
2018-05-15T06:25:40.102Z,9784.00
2018-05-15T06:26:46.035Z,10192.00
2018-05-15T06:27:52.450Z,10608.00
2018-05-15T06:28:59.387Z,11092.00
2018-05-15T06:30:05.833Z,11524.00
2018-05-15T06:31:12.236Z,11860.00
2018-05-15T06:32:18.728Z,12072.00
2018-05-15T06:33:25.101Z,12172.00
2018-05-15T06:34:31.565Z,12372.00
2018-05-15T06:35:37.489Z,12508.00
2018-05-15T06:36:44.443Z,12360.00
2018-05-15T06:37:50.889Z,12208.00
2018-05-15T06:38:57.343Z,12176.00
2018-05-15T06:40:03.816Z,12228.00
2018-05-15T06:41:10.258Z,12240.00
2018-05-15T06:42:16.210Z,12124.00
2018-05-15T06:43:23.173Z,11876.00
2018-05-15T06:44:29.157Z,11708.00
2018-05-15T06:45:36.096Z,11628.00
2018-05-15T06:46:42.555Z,11656.00
2018-05-15T06:47:49.516Z,11620.00
2018-05-15T06:48:55.479Z,11476.00
2018-05-15T06:50:01.978Z,11340.00
2018-05-15T06:51:08.417Z,11352.00
2018-05-15T06:52:14.875Z,11480.00
2018-05-15T06:53:20.839Z,11632.00
2018-05-15T06:54:27.827Z,11796.00
2018-05-15T06:55:34.261Z,11992.00
2018-05-15T06:56:40.729Z,12216.00
2018-05-15T06:57:47.201Z,12584.00
2018-05-15T06:58:53.692Z,12972.00
2018-05-15T07:00:01.176Z,13364.00
2018-05-15T07:01:06.645Z,13700.00
2018-05-15T07:02:12.619Z,14044.00
2018-05-15T07:03:19.591Z,14344.00
2018-05-15T07:04:26.121Z,14396.00
2018-05-15T07:05:32.580Z,14212.00
2018-05-15T07:06:39.073Z,14004.00
2018-05-15T07:07:45.639Z,13540.00
2018-05-15T07:08:52.088Z,13220.00
2018-05-15T07:09:58.106Z,12920.00
2018-05-15T07:11:05.086Z,12448.00
2018-05-15T07:12:11.577Z,11840.00
2018-05-15T07:13:17.590Z,11332.00
2018-05-15T07:14:24.595Z,10840.00
2018-05-15T07:15:31.078Z,10472.00
2018-05-15T07:16:37.573Z,10284.00
2018-05-15T07:17:44.071Z,10188.00
2018-05-15T07:18:50.564Z,10284.00
2018-05-15T07:19:57.091Z,10400.00
2018-05-15T07:21:03.065Z,10524.00
2018-05-15T07:22:10.049Z,10452.00
2018-05-15T07:23:16.051Z,10412.00
2018-05-15T07:24:23.561Z,10504.00
2018-05-15T07:25:29.540Z,10388.00
2018-05-15T07:26:35.529Z,10068.00
2018-05-15T07:27:42.030Z,9808.00
2018-05-15T07:28:49.027Z,9676.00
2018-05-15T07:29:55.037Z,9568.00
2018-05-15T07:31:01.531Z,9420.00
2018-05-15T07:32:08.508Z,9132.00
2018-05-15T07:33:14.637Z,8816.00
2018-05-15T07:34:21.034Z,8444.00
2018-05-15T07:35:28.008Z,8008.00
2018-05-15T07:36:34.507Z,7684.00
2018-05-15T07:37:41.002Z,7712.00
2018-05-15T07:38:46.992Z,7668.00
2018-05-15T07:39:54.022Z,7736.00
2018-05-15T07:40:59.994Z,7756.00
2018-05-15T07:42:06.975Z,7840.00
2018-05-15T07:43:13.482Z,8008.00
2018-05-15T07:44:19.974Z,8008.00
2018-05-15T07:45:26.011Z,7800.00
2018-05-15T07:46:32.474Z,7472.00
2018-05-15T07:47:39.468Z,7456.00
2018-05-15T07:48:46.950Z,7356.00
2018-05-15T07:49:51.984Z,7364.00
2018-05-15T07:50:58.956Z,7328.00
2018-05-15T07:52:05.471Z,7388.00
2018-05-15T07:53:11.949Z,7808.00
2018-05-15T07:54:18.454Z,8164.00
2018-05-15T07:55:24.976Z,8332.00
2018-05-15T07:56:31.443Z,8320.00
2018-05-15T07:57:37.942Z,8416.00
2018-05-15T07:58:44.431Z,8680.00
2018-05-15T07:59:50.946Z,9096.00
2018-05-15T08:00:57.439Z,9404.00
2018-05-15T08:02:03.958Z,9808.00
2018-05-15T08:03:10.439Z,10404.00
2018-05-15T08:04:17.029Z,10472.00
2018-05-15T08:05:23.480Z,10472.00
2018-05-15T08:06:29.951Z,10532.00
2018-05-15T08:07:36.479Z,10488.00
2018-05-15T08:08:42.495Z,10336.00
2018-05-15T08:09:49.524Z,9964.00
2018-05-15T08:10:56.022Z,9656.00
2018-05-15T08:12:02.541Z,9144.00
2018-05-15T08:13:09.063Z,8676.00
2018-05-15T08:14:15.575Z,8364.00
2018-05-15T08:15:21.634Z,8440.00
2018-05-15T08:16:28.620Z,8736.00
2018-05-15T08:17:34.653Z,9284.00
2018-05-15T08:18:41.764Z,10144.00
2018-05-15T08:19:47.715Z,11240.00
2018-05-15T08:20:54.790Z,11984.00
2018-05-15T08:22:01.250Z,12984.00
2018-05-15T08:23:07.802Z,13320.00
2018-05-15T08:24:14.380Z,14164.00
2018-05-15T08:25:20.898Z,14080.00
2018-05-15T08:26:26.937Z,13688.00
2018-05-15T08:27:33.981Z,13220.00
2018-05-15T08:28:40.041Z,13192.00
2018-05-15T08:29:47.113Z,13104.00
2018-05-15T08:30:53.734Z,11992.00
2018-05-15T08:32:01.180Z,12156.00
2018-05-15T08:33:06.770Z,11716.00
2018-05-15T08:34:13.309Z,11264.00
2018-05-15T08:35:19.893Z,10800.00
2018-05-15T08:36:25.920Z,10372.00
2018-05-15T08:37:33.088Z,9668.00
2018-05-15T08:38:39.523Z,9172.00
2018-05-15T08:39:45.607Z,8724.00
2018-05-15T08:40:52.151Z,8356.00
2018-05-15T08:41:58.691Z,8152.00
2018-05-15T08:43:05.737Z,8228.00
2018-05-15T08:44:12.382Z,8164.00
2018-05-15T08:45:18.427Z,8196.00
2018-05-15T08:46:24.903Z,8200.00
2018-05-15T08:47:31.938Z,8112.00
2018-05-15T08:48:38.497Z,7784.00
2018-05-15T08:49:45.065Z,7612.00
2018-05-15T08:50:51.108Z,7572.00
2018-05-15T08:51:58.142Z,7716.00
2018-05-15T08:53:04.701Z,7988.00
2018-05-15T08:54:11.246Z,8152.00
2018-05-15T08:55:17.822Z,7996.00
2018-05-15T08:56:24.378Z,7924.00
2018-05-15T08:57:30.916Z,7820.00
2018-05-15T08:58:36.971Z,7632.00
2018-05-15T08:59:44.051Z,8100.00
2018-05-15T09:00:50.597Z,8232.00
2018-05-15T09:01:57.169Z,7956.00
2018-05-15T09:03:03.723Z,8024.00
2018-05-15T09:04:09.796Z,8052.00
2018-05-15T09:05:16.867Z,8292.00
2018-05-15T09:06:23.405Z,8956.00
2018-05-15T09:07:29.481Z,9956.00
2018-05-15T09:08:36.066Z,9656.00
2018-05-15T09:09:42.662Z,10460.00
2018-05-15T09:10:49.210Z,11452.00
2018-05-15T09:11:55.804Z,12436.00
2018-05-15T09:13:02.878Z,12444.00
2018-05-15T09:14:08.989Z,12280.00
2018-05-15T09:15:16.101Z,13160.00
2018-05-15T09:16:22.686Z,13656.00
2018-05-15T09:17:29.289Z,13820.00
2018-05-15T09:18:35.887Z,13752.00
2018-05-15T09:19:42.526Z,13848.00
2018-05-15T09:20:48.656Z,13880.00
2018-05-15T09:21:55.238Z,13952.00
2018-05-15T09:23:02.360Z,13852.00
2018-05-15T09:24:08.509Z,13272.00
2018-05-15T09:25:16.639Z,12232.00
2018-05-15T09:26:22.266Z,11880.00
2018-05-15T09:27:28.394Z,10700.00
2018-05-15T09:28:35.532Z,12924.00
2018-05-15T09:29:41.663Z,13984.00
2018-05-15T09:30:48.324Z,13548.00
2018-05-15T09:31:55.453Z,14644.00
2018-05-15T09:33:02.091Z,14896.00
2018-05-15T09:34:08.746Z,16040.00
2018-05-15T09:35:14.914Z,16052.00
2018-05-15T09:36:21.560Z,17596.00
2018-05-15T09:37:28.716Z,17992.00
2018-05-15T09:38:34.890Z,17292.00
2018-05-15T09:39:42.057Z,16432.00
2018-05-15T09:40:48.249Z,16280.00
2018-05-15T09:41:55.402Z,15888.00
2018-05-15T09:43:02.066Z,15292.00
2018-05-15T09:44:08.243Z,15224.00
2018-05-15T09:45:14.937Z,15696.00
2018-05-15T09:46:21.589Z,15968.00
2018-05-15T09:47:28.755Z,15264.00
2018-05-15T09:48:35.437Z,15620.00
2018-05-15T09:49:42.618Z,14592.00
2018-05-15T09:50:48.318Z,13364.00
2018-05-15T09:51:55.467Z,12504.00
2018-05-15T09:53:02.130Z,13640.00
2018-05-15T09:54:08.802Z,14280.00
2018-05-15T09:55:14.991Z,12152.00
2018-05-15T09:56:22.130Z,14212.00
2018-05-15T09:57:28.401Z,14824.00
2018-05-15T09:58:34.971Z,12972.00
2018-05-15T09:59:42.141Z,12020.00
2018-05-15T10:00:48.830Z,11932.00
2018-05-15T10:01:55.467Z,12448.00
2018-05-15T10:03:02.130Z,11760.00
2018-05-15T10:04:08.786Z,12400.00
2018-05-15T10:05:15.469Z,13180.00
2018-05-15T10:06:22.116Z,12772.00
2018-05-15T10:07:28.280Z,12336.00
2018-05-15T10:08:35.445Z,11996.00
2018-05-15T10:09:41.600Z,12700.00
2018-05-15T10:10:48.780Z,13388.00
2018-05-15T10:11:55.425Z,15108.00
2018-05-15T10:13:02.100Z,13324.00
2018-05-15T10:14:08.356Z,14244.00
2018-05-15T10:15:15.426Z,14416.00
2018-05-15T10:16:22.123Z,13844.00
2018-05-15T10:17:28.387Z,14224.00
2018-05-15T10:18:35.446Z,15760.00
2018-05-15T10:19:41.622Z,16184.00
2018-05-15T10:20:48.825Z,17116.00
2018-05-15T10:21:54.975Z,16948.00
2018-05-15T10:23:02.148Z,16556.00
2018-05-15T10:24:08.830Z,16312.00
2018-05-15T10:25:15.540Z,15936.00
2018-05-15T10:26:23.263Z,16364.00
2018-05-15T10:27:28.411Z,17012.00
2018-05-15T10:28:35.586Z,18204.00
2018-05-15T10:29:42.385Z,20064.00
2018-05-15T10:30:49.015Z,21152.00
2018-05-15T10:31:55.206Z,19200.00
2018-05-15T10:33:02.417Z,17616.00
2018-05-15T10:34:08.639Z,17476.00
2018-05-15T10:35:15.874Z,18344.00
2018-05-15T10:36:22.091Z,20384.00
2018-05-15T10:37:29.309Z,22528.00
2018-05-15T10:38:36.061Z,23040.00
2018-05-15T10:39:42.400Z,21920.00
2018-05-15T10:40:49.099Z,22400.00
2018-05-15T10:41:55.841Z,24288.00
2018-05-15T10:43:02.626Z,25760.00
2018-05-15T10:44:10.212Z,22848.00
2018-05-15T10:45:16.222Z,20256.00
2018-05-15T10:46:23.491Z,19904.00
2018-05-15T10:47:30.263Z,20736.00
2018-05-15T10:48:37.053Z,23104.00
2018-05-15T10:49:43.360Z,23232.00
2018-05-15T10:50:50.227Z,20384.00
2018-05-15T10:51:57.434Z,15920.00
2018-05-15T10:53:04.225Z,13464.00
2018-05-15T10:54:10.515Z,13560.00
2018-05-15T10:55:17.812Z,14020.00
2018-05-15T10:56:24.043Z,13648.00
2018-05-15T10:57:30.796Z,14216.00
2018-05-15T10:58:37.547Z,14824.00
2018-05-15T10:59:44.384Z,15904.00
2018-05-15T11:00:51.570Z,15748.00
2018-05-15T11:01:57.781Z,16104.00
2018-05-15T11:03:05.021Z,16988.00
2018-05-15T11:04:11.756Z,19168.00
2018-05-15T11:05:19.521Z,20448.00
2018-05-15T11:06:26.247Z,21056.00
2018-05-15T11:07:32.005Z,22272.00
2018-05-15T11:08:38.777Z,27424.00
2018-05-15T11:09:45.088Z,29760.00
2018-05-15T11:10:52.507Z,31776.00
2018-05-15T11:11:59.477Z,33888.00
2018-05-15T11:13:06.515Z,45824.00
2018-05-15T11:14:13.107Z,72480.00
2018-05-15T11:15:20.424Z,85696.00
2018-05-15T11:16:27.359Z,84928.00
2018-05-15T11:17:35.020Z,74368.00
2018-05-15T11:18:42.294Z,65280.00
2018-05-15T11:19:48.896Z,37344.00
2018-05-15T11:20:56.096Z,83072.00
2018-05-15T11:22:03.785Z,95264.00
2018-05-15T11:23:11.035Z,100992.00
2018-05-15T11:24:17.836Z,99232.00
2018-05-15T11:25:25.674Z,26944.00
2018-05-15T11:26:32.924Z,21728.00
2018-05-15T11:27:40.137Z,19904.00
2018-05-15T11:28:47.285Z,26688.00
2018-05-15T11:29:53.927Z,37600.00
2018-05-15T11:31:01.081Z,26336.00
2018-05-15T11:32:08.160Z,34528.00
2018-05-15T11:33:15.741Z,33152.00
2018-05-15T11:34:22.338Z,48416.00
2018-05-15T11:35:29.525Z,25536.00
2018-05-15T11:36:37.103Z,24352.00
2018-05-15T11:37:44.209Z,48768.00
2018-05-15T11:38:51.318Z,27200.00
2018-05-15T11:39:58.396Z,25824.00
2018-05-15T11:41:04.999Z,23712.00
2018-05-15T11:42:12.493Z,20352.00
2018-05-15T11:43:19.025Z,19808.00
2018-05-15T11:44:26.481Z,110688.00
2018-05-15T11:45:33.034Z,24064.00
2018-05-15T11:46:40.561Z,23328.00
2018-05-15T11:47:47.837Z,27712.00
2018-05-15T11:48:54.488Z,61792.00
2018-05-15T11:50:01.609Z,111744.00
2018-05-15T11:51:09.582Z,105824.00
2018-05-15T11:52:16.782Z,96544.00
2018-05-15T11:53:23.166Z,92416.00
2018-05-15T11:54:30.461Z,94976.00
2018-05-15T11:55:42.712Z,105408.00
2018-05-15T11:56:44.985Z,91968.00
2018-05-15T11:57:52.585Z,81632.00
2018-05-15T11:59:00.017Z,80128.00
2018-05-15T12:00:07.495Z,65984.00
2018-05-15T12:01:14.853Z,30752.00
2018-05-15T12:02:22.216Z,34368.00
2018-05-15T12:03:29.472Z,62592.00
2018-05-15T12:04:36.761Z,37024.00
2018-05-15T12:05:43.570Z,34784.00
2018-05-15T12:06:51.289Z,36832.00
2018-05-15T12:07:58.585Z,77248.00
2018-05-15T12:09:05.820Z,78880.00
2018-05-15T12:10:12.999Z,78976.00
2018-05-15T12:11:20.299Z,77952.00
2018-05-15T12:12:27.564Z,68480.00
2018-05-15T12:13:34.872Z,69952.00
2018-05-15T12:14:42.171Z,74336.00
2018-05-15T12:15:49.489Z,71168.00
2018-05-15T12:16:56.765Z,33568.00
2018-05-15T12:18:03.518Z,74528.00
2018-05-15T12:19:11.273Z,67584.00
2018-05-15T12:20:18.552Z,65024.00
2018-05-15T12:21:25.852Z,58720.00
2018-05-15T12:22:33.105Z,41888.00
2018-05-15T12:23:40.376Z,52864.00
2018-05-15T12:24:47.619Z,65888.00
2018-05-15T12:25:54.888Z,72160.00
2018-05-15T12:27:01.834Z,71680.00
2018-05-15T12:28:09.030Z,79360.00
2018-05-15T12:29:16.697Z,67904.00
2018-05-15T12:30:23.511Z,75360.00
2018-05-15T12:31:31.422Z,76448.00
2018-05-15T12:32:38.669Z,71072.00
2018-05-15T12:33:46.036Z,72160.00
2018-05-15T12:34:53.375Z,79488.00
2018-05-15T12:36:00.773Z,75008.00
2018-05-15T12:37:08.117Z,75648.00
2018-05-15T12:38:15.528Z,68768.00
2018-05-15T12:39:23.040Z,72992.00
2018-05-15T12:40:30.617Z,77280.00
2018-05-15T12:41:37.779Z,80224.00
2018-05-15T12:42:45.109Z,74848.00
2018-05-15T12:43:52.532Z,80512.00
2018-05-15T12:44:59.941Z,74816.00
2018-05-15T12:46:07.607Z,84288.00
2018-05-15T12:47:14.854Z,95200.00
2018-05-15T12:48:21.866Z,79488.00
2018-05-15T12:49:29.818Z,95680.00
2018-05-15T12:50:37.358Z,98144.00
2018-05-15T12:51:44.941Z,93984.00
2018-05-15T12:52:52.455Z,29952.00
2018-05-15T12:54:00.019Z,28288.00
2018-05-15T12:55:07.488Z,28192.00
2018-05-15T12:56:14.825Z,29024.00
2018-05-15T12:57:22.210Z,72032.00
2018-05-15T12:58:29.429Z,77792.00
2018-05-15T12:59:36.902Z,69920.00
2018-05-15T13:00:44.345Z,28608.00
2018-05-15T13:01:51.684Z,27392.00
2018-05-15T13:02:58.881Z,28544.00
2018-05-15T13:04:06.109Z,31680.00
2018-05-15T13:05:13.329Z,69760.00
2018-05-15T13:06:20.574Z,71104.00
2018-05-15T13:07:27.920Z,79424.00
2018-05-15T13:08:35.104Z,84768.00
2018-05-15T13:09:42.399Z,89888.00
2018-05-15T13:10:49.718Z,95168.00
2018-05-15T13:11:57.056Z,97792.00
2018-05-15T13:13:04.469Z,85280.00
2018-05-15T13:14:11.835Z,81184.00
2018-05-15T13:15:19.226Z,78784.00
2018-05-15T13:16:27.034Z,92320.00
2018-05-15T13:17:34.045Z,92448.00
2018-05-15T13:18:41.181Z,86272.00
2018-05-15T13:19:48.885Z,94784.00
2018-05-15T13:20:56.403Z,92576.00
2018-05-15T13:22:03.808Z,78304.00
2018-05-15T13:23:11.271Z,66240.00
2018-05-15T13:24:18.769Z,65984.00
2018-05-15T13:25:26.157Z,100352.00
2018-05-15T13:26:33.621Z,102112.00
2018-05-15T13:27:41.088Z,108608.00
2018-05-15T13:28:48.529Z,109472.00
2018-05-15T13:29:56.125Z,99840.00
2018-05-15T13:31:03.523Z,97184.00
2018-05-15T13:32:11.024Z,94208.00
2018-05-15T13:33:18.561Z,95296.00
2018-05-15T13:34:26.054Z,98304.00